createdAt,value
2018-11-02T00:00:37.284Z,5.97
2018-11-02T00:03:05.890Z,4.20
2018-11-02T00:05:34.027Z,6.07
2018-11-02T00:08:02.125Z,7.93
2018-11-02T00:10:30.182Z,9.07
2018-11-02T00:12:58.754Z,4.20
2018-11-02T00:15:27.047Z,5.70
2018-11-02T00:17:55.151Z,5.63
2018-11-02T00:20:23.232Z,6.17
2018-11-02T00:22:51.283Z,5.77
2018-11-02T00:25:19.399Z,6.53
2018-11-02T00:27:47.495Z,4.97
2018-11-02T00:30:15.576Z,6.37
2018-11-02T00:32:43.943Z,5.70
2018-11-02T00:35:12.077Z,5.60
2018-11-02T00:37:40.150Z,6.67
2018-11-02T00:40:08.869Z,5.37
2018-11-02T00:42:38.018Z,7.07
2018-11-02T00:45:07.677Z,6.23
2018-11-02T00:47:35.753Z,4.63
2018-11-02T00:50:03.939Z,5.13
2018-11-02T00:52:32.036Z,6.27
2018-11-02T00:55:00.111Z,5.13
2018-11-02T00:57:28.283Z,4.57
2018-11-02T00:59:56.770Z,8.17
2018-11-02T01:02:24.855Z,6.27
2018-11-02T01:04:52.954Z,4.17
2018-11-02T01:07:21.067Z,5.30
2018-11-02T01:09:49.151Z,3.47
2018-11-02T01:12:17.253Z,6.20
2018-11-02T01:14:45.649Z,6.03
2018-11-02T01:17:13.725Z,5.90
2018-11-02T01:19:41.836Z,5.23
2018-11-02T01:22:09.921Z,5.60
2018-11-02T01:24:37.986Z,5.83
2018-11-02T01:27:06.071Z,6.47
2018-11-02T01:29:34.171Z,5.63
2018-11-02T01:32:02.254Z,13.07
2018-11-02T01:34:30.314Z,5.07
2018-11-02T01:36:58.386Z,4.87
2018-11-02T01:39:26.455Z,6.17
2018-11-02T01:41:54.555Z,5.73
2018-11-02T01:44:22.647Z,6.80
2018-11-02T01:46:50.716Z,8.07
2018-11-02T01:49:18.779Z,4.73
2018-11-02T01:51:47.146Z,5.40
2018-11-02T01:54:15.214Z,12.17
2018-11-02T01:56:43.299Z,7.33
2018-11-02T01:59:11.638Z,5.20
2018-11-02T02:01:39.733Z,4.63
2018-11-02T02:04:07.923Z,10.83
2018-11-02T02:06:36.027Z,4.30
2018-11-02T02:09:06.310Z,6.00
2018-11-02T02:11:34.697Z,4.57
2018-11-02T02:14:02.799Z,8.83
2018-11-02T02:16:31.477Z,4.73
2018-11-02T02:18:59.621Z,5.63
2018-11-02T02:21:27.679Z,3.83
2018-11-02T02:23:55.739Z,5.53
2018-11-02T02:26:23.838Z,5.67
2018-11-02T02:28:52.211Z,5.83
2018-11-02T02:31:20.281Z,4.23
2018-11-02T02:33:48.363Z,4.13
2018-11-02T02:36:16.431Z,4.37
2018-11-02T02:38:44.530Z,7.17
2018-11-02T02:41:12.642Z,6.17
2018-11-02T02:43:40.766Z,6.30
2018-11-02T02:46:08.830Z,3.47
2018-11-02T02:48:36.899Z,6.23
2018-11-02T02:51:05.563Z,8.47
2018-11-02T02:53:33.630Z,4.37
2018-11-02T02:56:01.695Z,5.00
2018-11-02T02:58:29.866Z,3.97
2018-11-02T03:00:57.927Z,4.60
2018-11-02T03:03:26.044Z,4.10
2018-11-02T03:05:54.121Z,4.03
2018-11-02T03:08:22.187Z,4.00
2018-11-02T03:10:50.677Z,7.23
2018-11-02T03:13:18.639Z,6.00
2018-11-02T03:15:46.724Z,4.17
2018-11-02T03:18:14.802Z,4.80
2018-11-02T03:20:42.850Z,6.90
2018-11-02T03:23:10.911Z,3.40
2018-11-02T03:25:38.977Z,5.27
2018-11-02T03:28:07.434Z,5.30
2018-11-02T03:30:35.583Z,3.80
2018-11-02T03:33:03.565Z,3.97
2018-11-02T03:35:31.981Z,5.97
2018-11-02T03:38:00.046Z,4.57
2018-11-02T03:40:28.208Z,4.43
2018-11-02T03:42:56.370Z,5.27
2018-11-02T03:45:24.471Z,7.13
2018-11-02T03:47:52.556Z,3.67
2018-11-02T03:50:20.701Z,5.47
2018-11-02T03:52:48.735Z,2.83
2018-11-02T03:55:16.788Z,4.50
2018-11-02T03:57:44.859Z,4.90
2018-11-02T04:00:13.371Z,5.63
2018-11-02T04:02:41.466Z,5.57
2018-11-02T04:05:10.378Z,4.63
2018-11-02T04:07:38.504Z,4.77
2018-11-02T04:10:08.246Z,3.03
2018-11-02T04:12:36.256Z,3.93
2018-11-02T04:15:04.339Z,2.97
2018-11-02T04:17:32.409Z,6.63
2018-11-02T04:20:00.474Z,3.77
2018-11-02T04:22:28.534Z,4.10
2018-11-02T04:24:56.635Z,4.80
2018-11-02T04:27:24.809Z,3.80
2018-11-02T04:29:52.879Z,4.43
2018-11-02T04:32:20.959Z,3.80
2018-11-02T04:34:49.027Z,5.10
2018-11-02T04:37:17.110Z,5.37
2018-11-02T04:39:45.229Z,6.73
2018-11-02T04:42:13.337Z,4.53
2018-11-02T04:44:41.681Z,4.30
2018-11-02T04:47:09.738Z,3.37
2018-11-02T04:49:37.785Z,4.83
2018-11-02T04:52:06.321Z,3.63
2018-11-02T04:54:34.402Z,3.50
2018-11-02T04:57:02.495Z,5.27
2018-11-02T04:59:30.567Z,3.67
2018-11-02T05:01:58.635Z,4.83
2018-11-02T05:04:26.738Z,3.90
2018-11-02T05:06:54.818Z,6.10
2018-11-02T05:09:23.130Z,4.73
2018-11-02T05:11:51.230Z,2.73
2018-11-02T05:14:19.282Z,6.07
2018-11-02T05:16:47.366Z,4.73
2018-11-02T05:19:15.438Z,5.87
2018-11-02T05:21:45.328Z,6.57
2018-11-02T05:24:13.423Z,8.27
2018-11-02T05:26:41.569Z,9.03
2018-11-02T05:29:09.681Z,8.77
2018-11-02T05:31:37.766Z,8.47
2018-11-02T05:34:06.437Z,14.27
2018-11-02T05:36:34.577Z,12.00
2018-11-02T05:39:02.892Z,8.07
2018-11-02T05:41:30.951Z,10.50
2018-11-02T05:43:59.086Z,9.57
2018-11-02T05:46:27.172Z,16.53
2018-11-02T05:48:55.235Z,9.20
2018-11-02T05:51:23.290Z,5.03
2018-11-02T05:53:51.434Z,4.83
2018-11-02T05:56:19.526Z,12.17
2018-11-02T05:58:47.591Z,5.33
2018-11-02T06:01:15.647Z,6.80
2018-11-02T06:03:43.978Z,7.97
2018-11-02T06:06:12.058Z,5.00
2018-11-02T06:08:40.134Z,3.03
2018-11-02T06:11:08.591Z,11.80
2018-11-02T06:13:36.849Z,9.03
2018-11-02T06:16:05.310Z,5.20
2018-11-02T06:18:33.370Z,6.33
2018-11-02T06:21:01.445Z,7.03
2018-11-02T06:23:29.513Z,3.43
2018-11-02T06:25:57.583Z,5.37
2018-11-02T06:28:25.664Z,4.23
2018-11-02T06:30:54.038Z,4.30
2018-11-02T06:33:22.110Z,4.60
2018-11-02T06:35:50.178Z,4.10
2018-11-02T06:38:18.267Z,3.93
2018-11-02T06:40:46.632Z,4.10
2018-11-02T06:43:14.729Z,4.80
2018-11-02T06:45:42.787Z,5.70
2018-11-02T06:48:10.887Z,4.03
2018-11-02T06:50:39.308Z,4.83
2018-11-02T06:53:07.344Z,6.93
2018-11-02T06:55:35.407Z,11.43
2018-11-02T06:58:03.467Z,6.97
2018-11-02T07:00:31.945Z,7.53
2018-11-02T07:02:59.931Z,9.33
2018-11-02T07:05:28.274Z,11.70
2018-11-02T07:07:56.457Z,9.73
2018-11-02T07:10:24.488Z,16.60
2018-11-02T07:12:52.838Z,7.10
2018-11-02T07:15:20.907Z,8.50
2018-11-02T07:17:48.954Z,7.33
2018-11-02T07:20:17.017Z,7.83
2018-11-02T07:22:45.103Z,5.07
2018-11-02T07:25:13.496Z,7.97
2018-11-02T07:27:41.489Z,6.73
2018-11-02T07:30:10.258Z,6.50
2018-11-02T07:32:38.532Z,8.97
2018-11-02T07:35:06.903Z,6.80
2018-11-02T07:37:35.007Z,7.13
2018-11-02T07:40:03.083Z,20.07
2018-11-02T07:42:31.269Z,8.23
2018-11-02T07:44:59.336Z,10.77
2018-11-02T07:47:27.435Z,6.60
2018-11-02T07:49:55.491Z,7.70
2018-11-02T07:52:23.575Z,7.63
2018-11-02T07:54:51.655Z,15.40
2018-11-02T07:57:19.722Z,9.53
2018-11-02T07:59:47.786Z,5.57
2018-11-02T08:02:16.118Z,8.07
2018-11-02T08:04:44.194Z,10.80
2018-11-02T08:07:12.278Z,6.47
2018-11-02T08:09:40.334Z,5.93
2018-11-02T08:12:08.405Z,7.03
2018-11-02T08:14:36.491Z,9.23
2018-11-02T08:17:04.582Z,11.03
2018-11-02T08:19:32.647Z,7.47
2018-11-02T08:22:00.710Z,4.67
2018-11-02T08:24:28.823Z,4.27
2018-11-02T08:26:56.966Z,9.33
2018-11-02T08:29:25.014Z,6.20
2018-11-02T08:31:53.088Z,5.53
2018-11-02T08:34:21.143Z,10.77
2018-11-02T08:36:49.206Z,6.77
2018-11-02T08:39:17.266Z,4.17
2018-11-02T08:41:45.339Z,7.40
2018-11-02T08:44:13.414Z,5.43
2018-11-02T08:46:41.480Z,3.80
2018-11-02T08:49:09.615Z,3.83
2018-11-02T08:51:37.679Z,5.20
2018-11-02T08:54:05.758Z,9.20
2018-11-02T08:56:33.818Z,9.20
2018-11-02T08:59:02.003Z,4.33
2018-11-02T09:01:30.011Z,7.77
2018-11-02T09:03:58.083Z,4.87
2018-11-02T09:06:26.163Z,3.77
2018-11-02T09:08:54.244Z,3.83
2018-11-02T09:11:22.330Z,2.67
2018-11-02T09:13:50.386Z,4.57
2018-11-02T09:16:18.826Z,4.03
2018-11-02T09:18:47.185Z,3.43
2018-11-02T09:21:14.943Z,3.33
2018-11-02T09:23:43.015Z,2.53
2018-11-02T09:26:11.099Z,7.17
2018-11-02T09:28:39.166Z,4.07
2018-11-02T09:31:07.222Z,4.00
2018-11-02T09:33:35.278Z,8.13
2018-11-02T09:36:03.338Z,5.37
2018-11-02T09:38:31.406Z,4.73
2018-11-02T09:40:59.464Z,2.53
2018-11-02T09:43:27.543Z,5.27
2018-11-02T09:45:55.591Z,3.40
2018-11-02T09:48:23.683Z,4.50
2018-11-02T09:50:51.962Z,3.10
2018-11-02T09:53:20.046Z,3.47
2018-11-02T09:55:48.099Z,3.73
2018-11-02T09:58:16.260Z,3.67
2018-11-02T10:00:44.348Z,2.70
2018-11-02T10:03:12.427Z,2.93
2018-11-02T10:05:40.516Z,2.30
2018-11-02T10:08:08.571Z,2.90
2018-11-02T10:10:36.638Z,2.47
2018-11-02T10:13:04.750Z,3.57
2018-11-02T10:15:32.817Z,2.50
2018-11-02T10:18:00.879Z,2.27
2018-11-02T10:20:28.971Z,2.40
2018-11-02T10:22:57.051Z,4.50
2018-11-02T10:25:25.123Z,3.10
2018-11-02T10:27:53.220Z,2.27
2018-11-02T10:30:21.524Z,3.77
2018-11-02T10:32:51.999Z,3.00
2018-11-02T10:35:20.127Z,3.00
2018-11-02T10:37:48.181Z,4.57
2018-11-02T10:40:17.519Z,4.60
2018-11-02T10:42:52.912Z,2.93
2018-11-02T10:45:21.566Z,2.60
2018-11-02T10:47:49.576Z,4.77
2018-11-02T10:50:17.638Z,2.20
2018-11-02T10:52:45.686Z,3.50
2018-11-02T10:55:14.067Z,2.40
2018-11-02T10:57:42.143Z,6.00
2018-11-02T11:00:16.890Z,1.80
2018-11-02T11:02:44.987Z,4.40
2018-11-02T11:05:13.121Z,1.97
2018-11-02T11:07:41.408Z,2.13
2018-11-02T11:10:10.220Z,2.00
2018-11-02T11:12:38.732Z,2.20
2018-11-02T11:15:07.270Z,3.50
2018-11-02T11:17:35.598Z,3.77
2018-11-02T11:20:03.695Z,1.97
2018-11-02T11:22:31.788Z,1.70
2018-11-02T11:24:59.851Z,1.50
2018-11-02T11:27:28.221Z,2.20
2018-11-02T11:29:56.266Z,3.10
2018-11-02T11:32:24.659Z,1.90
2018-11-02T11:34:52.716Z,2.13
2018-11-02T11:37:20.814Z,1.70
2018-11-02T11:39:48.933Z,1.80
2018-11-02T11:42:16.959Z,2.20
2018-11-02T11:44:45.049Z,2.00
2018-11-02T11:47:13.170Z,1.90
2018-11-02T11:49:41.243Z,1.60
2018-11-02T11:52:09.319Z,2.13
2018-11-02T11:54:37.449Z,1.67
2018-11-02T11:57:06.367Z,1.70
2018-11-02T11:59:34.450Z,1.77
2018-11-02T12:02:02.539Z,2.63
2018-11-02T12:04:30.682Z,1.23
2018-11-02T12:06:58.665Z,2.43
2018-11-02T12:09:26.746Z,2.00
2018-11-02T12:11:54.817Z,1.97
2018-11-02T12:14:22.904Z,2.63
2018-11-02T12:16:51.018Z,3.13
2018-11-02T12:19:19.104Z,2.30
2018-11-02T12:21:47.225Z,2.40
2018-11-02T12:24:15.259Z,2.40
2018-11-02T12:26:43.337Z,1.33
2018-11-02T12:29:11.426Z,1.30
2018-11-02T12:31:39.504Z,2.43
2018-11-02T12:34:07.594Z,2.97
2018-11-02T12:36:35.662Z,1.93
2018-11-02T12:39:04.459Z,1.53
2018-11-02T12:41:32.538Z,1.30
2018-11-02T12:44:00.698Z,1.67
2018-11-02T12:46:28.922Z,2.40
2018-11-02T12:48:57.308Z,2.07
2018-11-02T12:51:25.058Z,2.77
2018-11-02T12:53:53.138Z,1.67
2018-11-02T12:56:21.186Z,2.10
2018-11-02T12:58:49.255Z,1.70
2018-11-02T13:01:17.319Z,2.80
2018-11-02T13:03:45.386Z,1.77
2018-11-02T13:06:13.449Z,1.80
2018-11-02T13:08:41.526Z,1.30
2018-11-02T13:11:09.590Z,1.70
2018-11-02T13:13:37.665Z,1.30
2018-11-02T13:16:05.808Z,1.83
2018-11-02T13:18:33.848Z,2.07
2018-11-02T13:21:01.969Z,1.97
2018-11-02T13:23:30.042Z,1.50
2018-11-02T13:25:58.200Z,3.10
2018-11-02T13:28:26.214Z,1.37
2018-11-02T13:30:54.426Z,1.63
2018-11-02T13:33:23.206Z,1.53
2018-11-02T13:35:51.275Z,2.17
2018-11-02T13:38:19.373Z,1.90
2018-11-02T13:40:47.542Z,2.07
2018-11-02T13:43:16.068Z,1.40
2018-11-02T13:45:44.067Z,1.47
2018-11-02T13:48:12.148Z,1.60
2018-11-02T13:50:40.232Z,2.17
2018-11-02T13:53:08.303Z,1.30
2018-11-02T13:55:36.440Z,1.30
2018-11-02T13:58:04.566Z,1.47
2018-11-02T14:00:32.718Z,1.40
2018-11-02T14:03:00.804Z,1.80
2018-11-02T14:05:28.995Z,1.50
2018-11-02T14:07:57.222Z,1.77
2018-11-02T14:10:25.394Z,1.67
2018-11-02T14:12:53.554Z,1.33
2018-11-02T14:15:21.914Z,1.10
2018-11-02T14:17:50.042Z,1.13
2018-11-02T14:20:18.179Z,1.80
2018-11-02T14:22:46.270Z,1.50
2018-11-02T14:25:15.574Z,2.57
2018-11-02T14:27:44.114Z,1.13
2018-11-02T14:30:15.554Z,1.43
2018-11-02T14:32:43.770Z,1.23
2018-11-02T14:35:12.045Z,1.90
2018-11-02T14:37:40.113Z,1.07
2018-11-02T14:40:09.102Z,0.93
2018-11-02T14:42:37.962Z,1.30
2018-11-02T14:45:07.631Z,1.23
2018-11-02T14:47:35.694Z,1.43
2018-11-02T14:50:04.202Z,1.13
2018-11-02T14:52:32.269Z,2.60
2018-11-02T14:55:00.431Z,1.30
2018-11-02T14:57:28.586Z,1.47
2018-11-02T14:59:56.817Z,2.10
2018-11-02T15:02:24.853Z,1.67
2018-11-02T15:04:52.926Z,1.00
2018-11-02T15:07:21.187Z,1.27
2018-11-02T15:09:49.246Z,1.53
2018-11-02T15:12:17.562Z,1.30
2018-11-02T15:14:45.986Z,1.23
2018-11-02T15:17:14.512Z,1.03
2018-11-02T15:19:43.062Z,1.20
2018-11-02T15:22:11.209Z,1.13
2018-11-02T15:24:39.654Z,1.40
2018-11-02T15:27:07.719Z,1.60
2018-11-02T15:29:35.822Z,1.20
2018-11-02T15:32:03.879Z,1.13
2018-11-02T15:34:31.960Z,0.97
2018-11-02T15:37:00.005Z,1.10
2018-11-02T15:39:28.098Z,1.30
2018-11-02T15:41:56.182Z,1.10
2018-11-02T15:44:24.501Z,1.27
2018-11-02T15:46:52.562Z,1.40
2018-11-02T15:49:20.631Z,2.20
2018-11-02T15:51:48.706Z,0.83
2018-11-02T15:54:16.813Z,1.10
2018-11-02T15:56:44.862Z,1.00
2018-11-02T15:59:12.929Z,1.10
2018-11-02T16:01:41.055Z,1.47
2018-11-02T16:04:09.164Z,1.27
2018-11-02T16:06:37.241Z,1.43
2018-11-02T16:09:09.506Z,1.57
2018-11-02T16:11:37.601Z,1.43
2018-11-02T16:14:05.700Z,1.37
2018-11-02T16:16:33.787Z,1.10
2018-11-02T16:19:01.883Z,1.47
2018-11-02T16:21:29.953Z,1.03
2018-11-02T16:23:58.030Z,1.43
2018-11-02T16:26:26.094Z,1.07
2018-11-02T16:28:54.175Z,1.30
2018-11-02T16:31:22.264Z,0.93
2018-11-02T16:33:50.318Z,1.57
2018-11-02T16:36:18.509Z,1.37
2018-11-02T16:38:46.597Z,1.30
2018-11-02T16:41:14.662Z,1.10
2018-11-02T16:43:43.054Z,1.17
2018-11-02T16:46:11.074Z,0.90
2018-11-02T16:48:39.143Z,1.30
2018-11-02T16:51:07.226Z,1.20
2018-11-02T16:53:35.278Z,1.20
2018-11-02T16:56:03.925Z,1.37
2018-11-02T16:58:32.031Z,1.17
2018-11-02T17:01:00.140Z,1.77
2018-11-02T17:03:28.198Z,0.87
2018-11-02T17:05:56.332Z,1.13
2018-11-02T17:08:24.328Z,0.90
2018-11-02T17:10:52.390Z,0.80
2018-11-02T17:13:20.447Z,1.20
2018-11-02T17:15:48.534Z,1.00
2018-11-02T17:18:16.630Z,1.10
2018-11-02T17:20:44.716Z,0.90
2018-11-02T17:23:13.968Z,1.00
2018-11-02T17:25:42.054Z,0.90
2018-11-02T17:28:10.126Z,0.97
2018-11-02T17:30:38.530Z,1.07
2018-11-02T17:33:06.695Z,1.67
2018-11-02T17:35:34.768Z,0.90
2018-11-02T17:38:02.822Z,1.40
2018-11-02T17:40:30.925Z,0.80
2018-11-02T17:42:59.116Z,1.00
2018-11-02T17:45:27.197Z,1.77
2018-11-02T17:47:55.273Z,1.60
2018-11-02T17:50:23.358Z,1.40
2018-11-02T17:52:51.462Z,2.23
2018-11-02T17:55:19.582Z,1.33
2018-11-02T17:57:48.228Z,0.93
2018-11-02T18:00:16.385Z,1.10
2018-11-02T18:02:44.469Z,1.00
2018-11-02T18:05:12.674Z,2.03
2018-11-02T18:07:40.767Z,1.10
2018-11-02T18:10:11.684Z,0.90
2018-11-02T18:12:40.069Z,0.87
2018-11-02T18:15:08.661Z,0.73
2018-11-02T18:17:37.162Z,0.70
2018-11-02T18:20:08.087Z,1.10
2018-11-02T18:22:36.179Z,1.00
2018-11-02T18:25:04.687Z,1.47
2018-11-02T18:27:33.728Z,1.80
2018-11-02T18:30:01.814Z,1.00
2018-11-02T18:32:29.906Z,0.83
2018-11-02T18:34:58.057Z,0.87
2018-11-02T18:37:26.051Z,1.10
2018-11-02T18:39:54.178Z,1.17
2018-11-02T18:42:22.363Z,1.17
2018-11-02T18:44:50.363Z,1.77
2018-11-02T18:47:18.492Z,1.10
2018-11-02T18:49:46.496Z,0.80
2018-11-02T18:52:14.602Z,1.00
2018-11-02T18:54:42.763Z,1.00
2018-11-02T18:57:10.815Z,0.83
2018-11-02T18:59:38.881Z,0.80
2018-11-02T19:02:06.978Z,1.20
2018-11-02T19:04:35.398Z,1.00
2018-11-02T19:07:03.495Z,1.23
2018-11-02T19:09:31.562Z,1.07
2018-11-02T19:11:59.642Z,0.93
2018-11-02T19:14:27.745Z,1.20
2018-11-02T19:16:55.859Z,0.77
2018-11-02T19:19:23.946Z,0.90
2018-11-02T19:21:52.003Z,0.63
2018-11-02T19:24:20.071Z,0.80
2018-11-02T19:26:48.196Z,0.77
2018-11-02T19:29:16.303Z,0.97
2018-11-02T19:31:44.370Z,1.00
2018-11-02T19:34:12.540Z,0.70
2018-11-02T19:36:40.515Z,1.33
2018-11-02T19:39:09.399Z,1.03
2018-11-02T19:41:37.478Z,0.90
2018-11-02T19:44:05.757Z,0.90
2018-11-02T19:46:33.830Z,1.23
2018-11-02T19:49:01.948Z,0.93
2018-11-02T19:51:30.014Z,1.90
2018-11-02T19:53:58.086Z,0.70
2018-11-02T19:56:26.174Z,0.77
2018-11-02T19:58:54.525Z,0.83
2018-11-02T20:01:22.630Z,1.00
2018-11-02T20:03:50.693Z,0.80
2018-11-02T20:06:18.780Z,0.80
2018-11-02T20:08:46.838Z,1.00
2018-11-02T20:11:14.906Z,1.03
2018-11-02T20:13:42.994Z,0.80
2018-11-02T20:16:11.380Z,0.70
2018-11-02T20:18:39.474Z,0.67
2018-11-02T20:21:07.574Z,0.77
2018-11-02T20:23:35.630Z,0.80
2018-11-02T20:26:03.793Z,1.17
2018-11-02T20:28:31.915Z,0.80
2018-11-02T20:30:59.982Z,0.70
2018-11-02T20:33:28.031Z,0.83
2018-11-02T20:35:56.110Z,1.00
2018-11-02T20:38:24.174Z,0.73
2018-11-02T20:40:53.672Z,0.90
2018-11-02T20:43:21.744Z,0.90
2018-11-02T20:45:49.826Z,1.10
2018-11-02T20:48:17.954Z,0.80
2018-11-02T20:50:46.048Z,0.80
2018-11-02T20:53:14.108Z,1.03
2018-11-02T20:55:42.179Z,0.83
2018-11-02T20:58:10.247Z,0.77
2018-11-02T21:00:38.306Z,0.60
2018-11-02T21:03:06.374Z,1.00
2018-11-02T21:05:34.493Z,1.60
2018-11-02T21:08:02.644Z,1.10
2018-11-02T21:10:30.710Z,0.83
2018-11-02T21:12:58.804Z,1.23
2018-11-02T21:15:26.885Z,2.00
2018-11-02T21:17:55.063Z,1.07
2018-11-02T21:20:24.498Z,1.10
2018-11-02T21:22:52.539Z,0.70
2018-11-02T21:25:20.625Z,1.10
2018-11-02T21:27:49.114Z,0.70
2018-11-02T21:30:23.459Z,0.80
2018-11-02T21:32:52.085Z,1.23
2018-11-02T21:35:20.861Z,0.70
2018-11-02T21:37:49.284Z,0.90
2018-11-02T21:40:18.646Z,1.43
2018-11-02T21:42:46.755Z,0.87
2018-11-02T21:45:16.014Z,0.80
2018-11-02T21:47:44.487Z,0.80
2018-11-02T21:50:13.118Z,0.83
2018-11-02T21:52:41.218Z,0.80
2018-11-02T21:55:09.634Z,0.80
2018-11-02T21:57:37.944Z,1.50
2018-11-02T22:00:10.487Z,0.70
2018-11-02T22:02:38.659Z,0.90
2018-11-02T22:05:07.443Z,0.80
2018-11-02T22:07:35.514Z,0.90
2018-11-02T22:10:04.038Z,0.80
2018-11-02T22:12:32.154Z,0.80
2018-11-02T22:15:00.225Z,1.00
2018-11-02T22:17:28.302Z,0.80
2018-11-02T22:19:56.440Z,0.77
2018-11-02T22:22:24.612Z,0.80
2018-11-02T22:24:52.782Z,1.43
2018-11-02T22:27:20.917Z,1.07
2018-11-02T22:29:48.913Z,0.80
2018-11-02T22:32:17.099Z,0.80
2018-11-02T22:34:45.851Z,0.80
2018-11-02T22:37:13.932Z,0.80
2018-11-02T22:39:42.436Z,0.60
2018-11-02T22:42:10.489Z,0.60
2018-11-02T22:44:38.578Z,0.70
2018-11-02T22:47:06.935Z,0.90
2018-11-02T22:49:35.026Z,0.50
2018-11-02T22:52:03.083Z,0.73
2018-11-02T22:54:31.158Z,0.80
2018-11-02T22:56:59.226Z,0.70
2018-11-02T22:59:27.325Z,1.33
2018-11-02T23:01:55.396Z,1.00
2018-11-02T23:04:23.458Z,1.00
2018-11-02T23:06:51.515Z,0.97
2018-11-02T23:09:19.590Z,0.70
2018-11-02T23:11:47.967Z,0.70
2018-11-02T23:14:16.034Z,1.00
2018-11-02T23:16:44.230Z,0.70
2018-11-02T23:19:12.285Z,0.60
2018-11-02T23:21:40.338Z,1.37
2018-11-02T23:24:08.398Z,0.90
2018-11-02T23:26:37.780Z,0.70
2018-11-02T23:29:07.782Z,0.70
2018-11-02T23:31:36.167Z,0.87
2018-11-02T23:34:04.425Z,0.60
2018-11-02T23:36:32.766Z,0.83
2018-11-02T23:39:01.142Z,0.77
2018-11-02T23:41:29.245Z,0.73
2018-11-02T23:43:57.315Z,1.17
2018-11-02T23:46:25.415Z,1.07
2018-11-02T23:48:53.527Z,0.80
2018-11-02T23:51:21.907Z,0.77
2018-11-02T23:53:49.966Z,0.90
2018-11-02T23:56:18.022Z,0.70
2018-11-02T23:58:46.087Z,0.80
